<?xml version="1.0" encoding="UTF-8" standalone="no" ?>
<gpx xmlns="http://www.topografix.com/GPX/1/1" xmlns:xsi="http://www.w3.org/2001/XMLSchema-instance" xsi:schemaLocation="http://www.topografix.com/GPX/1/1 http://www.topografix.com/GPX/1/1/gpx.xsd" version="1.1" creator="VisuGPX - https://www.visugpx.com">
  <metadata>
    <name>La Super Agglo</name>
    <desc><![CDATA[Le parcours de la Super Agglo, distance et dénivelé]]></desc>
  </metadata>
  <trk>
    <name><![CDATA[--Argonay-- OR-5441982:SUPER AGGLO 17 km]]></name>
    <trkseg>
      <trkpt lat="45.94512" lon="6.14021">
        <ele>542</ele>
        <time>2015-11-09T13:30:57Z</time>
      </trkpt>
      <trkpt lat="45.9433" lon="6.14196">
        <ele>521</ele>
        <time>2015-11-09T14:18:57Z</time>
      </trkpt>
      <trkpt lat="45.94051" lon="6.1386">
        <ele>498</ele>
        <time>2015-11-09T15:22:57Z</time>
      </trkpt>
      <trkpt lat="45.93972" lon="6.14384">
        <ele>501</ele>
        <time>2015-11-09T16:14:57Z</time>
      </trkpt>
      <trkpt lat="45.93829" lon="6.1419">
        <ele>492</ele>
        <time>2015-11-09T16:46:57Z</time>
      </trkpt>
      <trkpt lat="45.93827" lon="6.13837">
        <ele>484</ele>
        <time>2015-11-09T17:18:57Z</time>
      </trkpt>
      <trkpt lat="45.93401" lon="6.13127">
        <ele>461</ele>
        <time>2015-11-09T19:06:57Z</time>
      </trkpt>
      <trkpt lat="45.93318" lon="6.12816">
        <ele>456</ele>
        <time>2015-11-09T19:44:57Z</time>
      </trkpt>
      <trkpt lat="45.93399" lon="6.12359">
        <ele>452</ele>
        <time>2015-11-09T20:50:57Z</time>
      </trkpt>
      <trkpt lat="45.93247" lon="6.12142">
        <ele>447</ele>
        <time>2015-11-09T21:24:57Z</time>
      </trkpt>
      <trkpt lat="45.9231" lon="6.11501">
        <ele>432</ele>
        <time>2015-11-09T23:48:57Z</time>
      </trkpt>
      <trkpt lat="45.92228" lon="6.11326">
        <ele>435</ele>
        <time>2015-11-10T00:20:57Z</time>
      </trkpt>
      <trkpt lat="45.92183" lon="6.11415">
        <ele>429</ele>
        <time>2015-11-10T00:42:57Z</time>
      </trkpt>
      <trkpt lat="45.91861" lon="6.10831">
        <ele>428</ele>
        <time>2015-11-10T02:12:57Z</time>
      </trkpt>
      <trkpt lat="45.9146" lon="6.10538">
        <ele>424</ele>
        <time>2015-11-10T03:36:57Z</time>
      </trkpt>
      <trkpt lat="45.91289" lon="6.10831">
        <ele>428</ele>
        <time>2015-11-10T04:10:57Z</time>
      </trkpt>
      <trkpt lat="45.91045" lon="6.10888">
        <ele>442</ele>
        <time>2015-11-10T05:36:57Z</time>
      </trkpt>
      <trkpt lat="45.90791" lon="6.10521">
        <ele>445</ele>
        <time>2015-11-10T06:44:57Z</time>
      </trkpt>
      <trkpt lat="45.90632" lon="6.10682">
        <ele>447</ele>
        <time>2015-11-10T07:16:57Z</time>
      </trkpt>
      <trkpt lat="45.90416" lon="6.10715">
        <ele>453</ele>
        <time>2015-11-10T07:58:57Z</time>
      </trkpt>
      <trkpt lat="45.90298" lon="6.11003">
        <ele>454</ele>
        <time>2015-11-10T08:40:57Z</time>
      </trkpt>
      <trkpt lat="45.89891" lon="6.11284">
        <ele>451</ele>
        <time>2015-11-10T10:22:57Z</time>
      </trkpt>
      <trkpt lat="45.89714" lon="6.11716">
        <ele>452</ele>
        <time>2015-11-10T11:28:57Z</time>
      </trkpt>
      <trkpt lat="45.89803" lon="6.11914">
        <ele>450</ele>
        <time>2015-11-10T12:02:57Z</time>
      </trkpt>
      <trkpt lat="45.89664" lon="6.11746">
        <ele>450</ele>
        <time>2015-11-10T12:30:57Z</time>
      </trkpt>
      <trkpt lat="45.89317" lon="6.11741">
        <ele>450</ele>
        <time>2015-11-10T13:38:57Z</time>
      </trkpt>
      <trkpt lat="45.88931" lon="6.12426">
        <ele>471</ele>
        <time>2015-11-10T15:54:57Z</time>
      </trkpt>
      <trkpt lat="45.89001" lon="6.12817">
        <ele>545</ele>
        <time>2015-11-10T19:20:57Z</time>
      </trkpt>
      <trkpt lat="45.89299" lon="6.12584">
        <ele>500</ele>
        <time>2015-11-10T20:32:57Z</time>
      </trkpt>
      <trkpt lat="45.89373" lon="6.12762">
        <ele>490</ele>
        <time>2015-11-10T21:10:57Z</time>
      </trkpt>
      <trkpt lat="45.89262" lon="6.12972">
        <ele>518</ele>
        <time>2015-11-10T22:24:57Z</time>
      </trkpt>
      <trkpt lat="45.89025" lon="6.13048">
        <ele>548</ele>
        <time>2015-11-11T00:00:57Z</time>
      </trkpt>
      <trkpt lat="45.89023" lon="6.13437">
        <ele>529</ele>
        <time>2015-11-11T01:10:57Z</time>
      </trkpt>
      <trkpt lat="45.89106" lon="6.13451">
        <ele>508</ele>
        <time>2015-11-11T02:12:57Z</time>
      </trkpt>
      <trkpt lat="45.8903" lon="6.13685">
        <ele>488</ele>
        <time>2015-11-11T03:58:57Z</time>
      </trkpt>
      <trkpt lat="45.89153" lon="6.13903">
        <ele>455</ele>
        <time>2015-11-11T05:06:57Z</time>
      </trkpt>
      <trkpt lat="45.89555" lon="6.13403">
        <ele>450</ele>
        <time>2015-11-11T06:20:57Z</time>
      </trkpt>
      <trkpt lat="45.89627" lon="6.13469">
        <ele>447</ele>
        <time>2015-11-11T06:36:57Z</time>
      </trkpt>
      <trkpt lat="45.89789" lon="6.13274">
        <ele>449</ele>
        <time>2015-11-11T07:06:57Z</time>
      </trkpt>
      <trkpt lat="45.89805" lon="6.12912">
        <ele>454</ele>
        <time>2015-11-11T07:46:57Z</time>
      </trkpt>
      <trkpt lat="45.89991" lon="6.13073">
        <ele>455</ele>
        <time>2015-11-11T08:58:57Z</time>
      </trkpt>
      <trkpt lat="45.90019" lon="6.12815">
        <ele>455</ele>
        <time>2015-11-11T09:50:57Z</time>
      </trkpt>
      <trkpt lat="45.90088" lon="6.12776">
        <ele>454</ele>
        <time>2015-11-11T10:18:57Z</time>
      </trkpt>
      <trkpt lat="45.90446" lon="6.14053">
        <ele>453</ele>
        <time>2015-11-11T12:42:57Z</time>
      </trkpt>
      <trkpt lat="45.90234" lon="6.14302">
        <ele>450</ele>
        <time>2015-11-11T13:12:57Z</time>
      </trkpt>
      <trkpt lat="45.90246" lon="6.14514">
        <ele>447</ele>
        <time>2015-11-11T13:24:57Z</time>
      </trkpt>
      <trkpt lat="45.90383" lon="6.14555">
        <ele>453</ele>
        <time>2015-11-11T13:36:57Z</time>
      </trkpt>
      <trkpt lat="45.9044" lon="6.14805">
        <ele>451</ele>
        <time>2015-11-11T13:40:57Z</time>
      </trkpt>
      <trkpt lat="45.90484" lon="6.14192">
        <ele>451</ele>
        <time>2015-11-11T13:54:57Z</time>
      </trkpt>
      <trkpt lat="45.90372" lon="6.14248">
        <ele>451</ele>
        <time>2015-11-11T13:56:57Z</time>
      </trkpt>
    </trkseg>
  </trk>
  <rte>
    <name><![CDATA[--Argonay-- OR-5441982:SUPER AGGLO 17 km]]></name>
    <desc><![CDATA[Generated from track --Argonay-- OR-5441982:SUPER AGGLO 17 km]]></desc>
      <rtept lat="45.94512" lon="6.14021">
        <ele>542</ele>
        <name><![CDATA[RPT001]]></name>
      </rtept>
      <rtept lat="45.9433" lon="6.14196">
        <ele>521</ele>
        <name><![CDATA[RPT002]]></name>
      </rtept>
      <rtept lat="45.94051" lon="6.1386">
        <ele>498</ele>
        <name><![CDATA[RPT003]]></name>
      </rtept>
      <rtept lat="45.93972" lon="6.14384">
        <ele>501</ele>
        <name><![CDATA[RPT004]]></name>
      </rtept>
      <rtept lat="45.93829" lon="6.1419">
        <ele>492</ele>
        <name><![CDATA[RPT005]]></name>
      </rtept>
      <rtept lat="45.93827" lon="6.13837">
        <ele>484</ele>
        <name><![CDATA[RPT006]]></name>
      </rtept>
      <rtept lat="45.93401" lon="6.13127">
        <ele>461</ele>
        <name><![CDATA[RPT007]]></name>
      </rtept>
      <rtept lat="45.93318" lon="6.12816">
        <ele>456</ele>
        <name><![CDATA[RPT008]]></name>
      </rtept>
      <rtept lat="45.93399" lon="6.12359">
        <ele>452</ele>
        <name><![CDATA[RPT009]]></name>
      </rtept>
      <rtept lat="45.93247" lon="6.12142">
        <ele>447</ele>
        <name><![CDATA[RPT010]]></name>
      </rtept>
      <rtept lat="45.9231" lon="6.11501">
        <ele>432</ele>
        <name><![CDATA[RPT011]]></name>
      </rtept>
      <rtept lat="45.92228" lon="6.11326">
        <ele>435</ele>
        <name><![CDATA[RPT012]]></name>
      </rtept>
      <rtept lat="45.92183" lon="6.11415">
        <ele>429</ele>
        <name><![CDATA[RPT013]]></name>
      </rtept>
      <rtept lat="45.91861" lon="6.10831">
        <ele>428</ele>
        <name><![CDATA[RPT014]]></name>
      </rtept>
      <rtept lat="45.9146" lon="6.10538">
        <ele>424</ele>
        <name><![CDATA[RPT015]]></name>
      </rtept>
      <rtept lat="45.91289" lon="6.10831">
        <ele>428</ele>
        <name><![CDATA[RPT016]]></name>
      </rtept>
      <rtept lat="45.91045" lon="6.10888">
        <ele>442</ele>
        <name><![CDATA[RPT017]]></name>
      </rtept>
      <rtept lat="45.90791" lon="6.10521">
        <ele>445</ele>
        <name><![CDATA[RPT018]]></name>
      </rtept>
      <rtept lat="45.90632" lon="6.10682">
        <ele>447</ele>
        <name><![CDATA[RPT019]]></name>
      </rtept>
      <rtept lat="45.90416" lon="6.10715">
        <ele>453</ele>
        <name><![CDATA[RPT020]]></name>
      </rtept>
      <rtept lat="45.90298" lon="6.11003">
        <ele>454</ele>
        <name><![CDATA[RPT021]]></name>
      </rtept>
      <rtept lat="45.89891" lon="6.11284">
        <ele>451</ele>
        <name><![CDATA[RPT022]]></name>
      </rtept>
      <rtept lat="45.89714" lon="6.11716">
        <ele>452</ele>
        <name><![CDATA[RPT023]]></name>
      </rtept>
      <rtept lat="45.89803" lon="6.11914">
        <ele>450</ele>
        <name><![CDATA[RPT024]]></name>
      </rtept>
      <rtept lat="45.89664" lon="6.11746">
        <ele>450</ele>
        <name><![CDATA[RPT025]]></name>
      </rtept>
      <rtept lat="45.89317" lon="6.11741">
        <ele>450</ele>
        <name><![CDATA[RPT026]]></name>
      </rtept>
      <rtept lat="45.88931" lon="6.12426">
        <ele>471</ele>
        <name><![CDATA[RPT027]]></name>
      </rtept>
      <rtept lat="45.89001" lon="6.12817">
        <ele>545</ele>
        <name><![CDATA[RPT028]]></name>
      </rtept>
      <rtept lat="45.89299" lon="6.12584">
        <ele>500</ele>
        <name><![CDATA[RPT029]]></name>
      </rtept>
      <rtept lat="45.89373" lon="6.12762">
        <ele>490</ele>
        <name><![CDATA[RPT030]]></name>
      </rtept>
      <rtept lat="45.89262" lon="6.12972">
        <ele>518</ele>
        <name><![CDATA[RPT031]]></name>
      </rtept>
      <rtept lat="45.89025" lon="6.13048">
        <ele>548</ele>
        <name><![CDATA[RPT032]]></name>
      </rtept>
      <rtept lat="45.89023" lon="6.13437">
        <ele>529</ele>
        <name><![CDATA[RPT033]]></name>
      </rtept>
      <rtept lat="45.89106" lon="6.13451">
        <ele>508</ele>
        <name><![CDATA[RPT034]]></name>
      </rtept>
      <rtept lat="45.8903" lon="6.13685">
        <ele>488</ele>
        <name><![CDATA[RPT035]]></name>
      </rtept>
      <rtept lat="45.89153" lon="6.13903">
        <ele>455</ele>
        <name><![CDATA[RPT036]]></name>
      </rtept>
      <rtept lat="45.89555" lon="6.13403">
        <ele>450</ele>
        <name><![CDATA[RPT037]]></name>
      </rtept>
      <rtept lat="45.89627" lon="6.13469">
        <ele>447</ele>
        <name><![CDATA[RPT038]]></name>
      </rtept>
      <rtept lat="45.89789" lon="6.13274">
        <ele>449</ele>
        <name><![CDATA[RPT039]]></name>
      </rtept>
      <rtept lat="45.89805" lon="6.12912">
        <ele>454</ele>
        <name><![CDATA[RPT040]]></name>
      </rtept>
      <rtept lat="45.89991" lon="6.13073">
        <ele>455</ele>
        <name><![CDATA[RPT041]]></name>
      </rtept>
      <rtept lat="45.90019" lon="6.12815">
        <ele>455</ele>
        <name><![CDATA[RPT042]]></name>
      </rtept>
      <rtept lat="45.90088" lon="6.12776">
        <ele>454</ele>
        <name><![CDATA[RPT043]]></name>
      </rtept>
      <rtept lat="45.90446" lon="6.14053">
        <ele>453</ele>
        <name><![CDATA[RPT044]]></name>
      </rtept>
      <rtept lat="45.90234" lon="6.14302">
        <ele>450</ele>
        <name><![CDATA[RPT045]]></name>
      </rtept>
      <rtept lat="45.90246" lon="6.14514">
        <ele>447</ele>
        <name><![CDATA[RPT046]]></name>
      </rtept>
      <rtept lat="45.90383" lon="6.14555">
        <ele>453</ele>
        <name><![CDATA[RPT047]]></name>
      </rtept>
      <rtept lat="45.9044" lon="6.14805">
        <ele>451</ele>
        <name><![CDATA[RPT048]]></name>
      </rtept>
      <rtept lat="45.90484" lon="6.14192">
        <ele>451</ele>
        <name><![CDATA[RPT049]]></name>
      </rtept>
      <rtept lat="45.90372" lon="6.14248">
        <ele>451</ele>
        <name><![CDATA[RPT050]]></name>
      </rtept>
    </rte>
</gpx>